sensor_id;sensor_type;location;lat;lon;timestamp;P1;durP1;ratioP1;P2;durP2;ratioP2
49962;SDS011;36180;57.678;11.910;2023-04-25T00:02:24;27.55;;;21.42;;
49962;SDS011;36180;57.678;11.910;2023-04-25T00:04:54;25.45;;;20.30;;
49962;SDS011;36180;57.678;11.910;2023-04-25T00:07:24;24.10;;;18.73;;
49962;SDS011;36180;57.678;11.910;2023-04-25T00:09:51;27.02;;;20.80;;
49962;SDS011;36180;57.678;11.910;2023-04-25T00:12:19;27.40;;;20.35;;
49962;SDS011;36180;57.678;11.910;2023-04-25T00:14:46;30.00;;;21.10;;
49962;SDS011;36180;57.678;11.910;2023-04-25T00:17:14;28.42;;;19.90;;
49962;SDS011;36180;57.678;11.910;2023-04-25T00:19:42;31.58;;;20.67;;
49962;SDS011;36180;57.678;11.910;2023-04-25T00:22:11;27.60;;;19.48;;
49962;SDS011;36180;57.678;11.910;2023-04-25T00:24:38;31.73;;;20.88;;
49962;SDS011;36180;57.678;11.910;2023-04-25T00:27:05;33.60;;;22.15;;
49962;SDS011;36180;57.678;11.910;2023-04-25T00:29:33;30.60;;;21.27;;
49962;SDS011;36180;57.678;11.910;2023-04-25T00:32:00;30.02;;;21.73;;
49962;SDS011;36180;57.678;11.910;2023-04-25T00:34:27;36.22;;;22.42;;
49962;SDS011;36180;57.678;11.910;2023-04-25T00:36:54;34.38;;;22.45;;
49962;SDS011;36180;57.678;11.910;2023-04-25T00:39:23;35.92;;;23.98;;
49962;SDS011;36180;57.678;11.910;2023-04-25T00:41:50;34.15;;;23.27;;
49962;SDS011;36180;57.678;11.910;2023-04-25T00:44:19;39.65;;;22.98;;
49962;SDS011;36180;57.678;11.910;2023-04-25T00:46:47;40.80;;;23.83;;
49962;SDS011;36180;57.678;11.910;2023-04-25T00:49:14;39.15;;;24.10;;
49962;SDS011;36180;57.678;11.910;2023-04-25T00:51:42;40.83;;;25.02;;
49962;SDS011;36180;57.678;11.910;2023-04-25T00:54:10;41.50;;;26.33;;
49962;SDS011;36180;57.678;11.910;2023-04-25T00:56:39;45.75;;;26.52;;
49962;SDS011;36180;57.678;11.910;2023-04-25T00:59:07;40.88;;;26.83;;
49962;SDS011;36180;57.678;11.910;2023-04-25T01:01:38;42.25;;;26.10;;
49962;SDS011;36180;57.678;11.910;2023-04-25T01:04:06;52.97;;;28.30;;
49962;SDS011;36180;57.678;11.910;2023-04-25T01:06:34;48.92;;;28.33;;
49962;SDS011;36180;57.678;11.910;2023-04-25T01:09:01;47.67;;;28.60;;
49962;SDS011;36180;57.678;11.910;2023-04-25T01:11:28;49.28;;;28.65;;
49962;SDS011;36180;57.678;11.910;2023-04-25T01:13:57;51.28;;;29.45;;
49962;SDS011;36180;57.678;11.910;2023-04-25T01:16:24;52.05;;;28.48;;
49962;SDS011;36180;57.678;11.910;2023-04-25T01:18:51;44.75;;;27.15;;
49962;SDS011;36180;57.678;11.910;2023-04-25T01:21:20;46.55;;;27.95;;
49962;SDS011;36180;57.678;11.910;2023-04-25T01:23:47;47.13;;;27.80;;
49962;SDS011;36180;57.678;11.910;2023-04-25T01:26:15;48.53;;;28.27;;
49962;SDS011;36180;57.678;11.910;2023-04-25T01:28:42;46.63;;;27.65;;
49962;SDS011;36180;57.678;11.910;2023-04-25T01:31:11;46.95;;;27.52;;
49962;SDS011;36180;57.678;11.910;2023-04-25T01:33:38;44.83;;;26.38;;
49962;SDS011;36180;57.678;11.910;2023-04-25T01:36:05;42.90;;;27.08;;
49962;SDS011;36180;57.678;11.910;2023-04-25T01:38:35;42.00;;;26.52;;
49962;SDS011;36180;57.678;11.910;2023-04-25T01:41:02;44.92;;;26.95;;
49962;SDS011;36180;57.678;11.910;2023-04-25T01:43:29;48.42;;;27.73;;
49962;SDS011;36180;57.678;11.910;2023-04-25T01:45:56;44.47;;;26.80;;
49962;SDS011;36180;57.678;11.910;2023-04-25T01:48:24;46.70;;;26.77;;
49962;SDS011;36180;57.678;11.910;2023-04-25T01:50:52;45.63;;;25.95;;
49962;SDS011;36180;57.678;11.910;2023-04-25T01:53:19;43.08;;;25.85;;
49962;SDS011;36180;57.678;11.910;2023-04-25T01:55:48;45.55;;;25.88;;
49962;SDS011;36180;57.678;11.910;2023-04-25T01:58:18;42.83;;;25.47;;
49962;SDS011;36180;57.678;11.910;2023-04-25T02:01:12;46.50;;;25.77;;
49962;SDS011;36180;57.678;11.910;2023-04-25T02:03:45;42.03;;;24.58;;
49962;SDS011;36180;57.678;11.910;2023-04-25T02:06:21;40.67;;;24.15;;
49962;SDS011;36180;57.678;11.910;2023-04-25T02:08:50;38.92;;;24.25;;
49962;SDS011;36180;57.678;11.910;2023-04-25T02:11:19;39.30;;;23.95;;
49962;SDS011;36180;57.678;11.910;2023-04-25T02:14:06;41.83;;;24.08;;
49962;SDS011;36180;57.678;11.910;2023-04-25T02:16:42;36.25;;;22.23;;
49962;SDS011;36180;57.678;11.910;2023-04-25T02:19:10;39.08;;;23.90;;
49962;SDS011;36180;57.678;11.910;2023-04-25T02:21:37;39.08;;;22.70;;
49962;SDS011;36180;57.678;11.910;2023-04-25T02:24:05;35.00;;;22.70;;
49962;SDS011;36180;57.678;11.910;2023-04-25T02:26:34;35.70;;;22.45;;
49962;SDS011;36180;57.678;11.910;2023-04-25T02:29:02;33.78;;;20.50;;
49962;SDS011;36180;57.678;11.910;2023-04-25T02:31:29;34.53;;;21.48;;
49962;SDS011;36180;57.678;11.910;2023-04-25T02:33:57;33.63;;;20.75;;
49962;SDS011;36180;57.678;11.910;2023-04-25T02:36:24;32.05;;;21.17;;
49962;SDS011;36180;57.678;11.910;2023-04-25T02:38:51;36.65;;;22.13;;
49962;SDS011;36180;57.678;11.910;2023-04-25T02:41:19;34.33;;;21.10;;
49962;SDS011;36180;57.678;11.910;2023-04-25T02:43:48;34.42;;;21.80;;
49962;SDS011;36180;57.678;11.910;2023-04-25T02:46:17;37.20;;;22.60;;
49962;SDS011;36180;57.678;11.910;2023-04-25T02:48:45;35.13;;;22.13;;
49962;SDS011;36180;57.678;11.910;2023-04-25T02:51:12;37.00;;;22.38;;
49962;SDS011;36180;57.678;11.910;2023-04-25T02:53:41;37.53;;;22.60;;
49962;SDS011;36180;57.678;11.910;2023-04-25T02:56:08;34.22;;;22.80;;
49962;SDS011;36180;57.678;11.910;2023-04-25T02:58:36;31.60;;;21.00;;
49962;SDS011;36180;57.678;11.910;2023-04-25T03:01:04;36.90;;;23.02;;
49962;SDS011;36180;57.678;11.910;2023-04-25T03:03:31;36.40;;;23.15;;
49962;SDS011;36180;57.678;11.910;2023-04-25T03:05:58;37.83;;;23.27;;
49962;SDS011;36180;57.678;11.910;2023-04-25T03:08:30;37.67;;;23.00;;
49962;SDS011;36180;57.678;11.910;2023-04-25T03:11:00;35.30;;;23.35;;
49962;SDS011;36180;57.678;11.910;2023-04-25T03:13:27;37.22;;;22.60;;
49962;SDS011;36180;57.678;11.910;2023-04-25T03:15:56;35.53;;;21.58;;
49962;SDS011;36180;57.678;11.910;2023-04-25T03:18:24;35.28;;;21.92;;
49962;SDS011;36180;57.678;11.910;2023-04-25T03:20:53;31.15;;;20.05;;
49962;SDS011;36180;57.678;11.910;2023-04-25T03:23:20;33.58;;;21.02;;
49962;SDS011;36180;57.678;11.910;2023-04-25T03:25:48;29.52;;;20.05;;
49962;SDS011;36180;57.678;11.910;2023-04-25T03:28:15;28.52;;;19.98;;
49962;SDS011;36180;57.678;11.910;2023-04-25T03:30:42;33.08;;;20.42;;
49962;SDS011;36180;57.678;11.910;2023-04-25T03:33:09;33.00;;;20.60;;
49962;SDS011;36180;57.678;11.910;2023-04-25T03:35:37;34.50;;;20.33;;
49962;SDS011;36180;57.678;11.910;2023-04-25T03:38:05;33.85;;;20.13;;
49962;SDS011;36180;57.678;11.910;2023-04-25T03:43:27;33.72;;;20.20;;
49962;SDS011;36180;57.678;11.910;2023-04-25T03:46:00;36.88;;;21.60;;
49962;SDS011;36180;57.678;11.910;2023-04-25T03:48:27;37.63;;;22.15;;
49962;SDS011;36180;57.678;11.910;2023-04-25T03:50:56;37.53;;;21.90;;
49962;SDS011;36180;57.678;11.910;2023-04-25T03:53:23;39.80;;;23.50;;
49962;SDS011;36180;57.678;11.910;2023-04-25T03:56:09;43.10;;;24.58;;
49962;SDS011;36180;57.678;11.910;2023-04-25T03:58:38;38.78;;;23.25;;
49962;SDS011;36180;57.678;11.910;2023-04-25T04:01:06;41.90;;;23.83;;
49962;SDS011;36180;57.678;11.910;2023-04-25T04:03:36;36.50;;;21.92;;
49962;SDS011;36180;57.678;11.910;2023-04-25T04:06:05;42.63;;;24.55;;
49962;SDS011;36180;57.678;11.910;2023-04-25T04:08:38;41.90;;;23.33;;
49962;SDS011;36180;57.678;11.910;2023-04-25T04:11:05;40.70;;;23.42;;
49962;SDS011;36180;57.678;11.910;2023-04-25T04:13:32;32.95;;;21.42;;
49962;SDS011;36180;57.678;11.910;2023-04-25T04:16:01;36.92;;;22.17;;
49962;SDS011;36180;57.678;11.910;2023-04-25T04:18:29;38.90;;;22.17;;
49962;SDS011;36180;57.678;11.910;2023-04-25T04:20:58;41.15;;;23.17;;
49962;SDS011;36180;57.678;11.910;2023-04-25T04:23:29;37.47;;;22.13;;
49962;SDS011;36180;57.678;11.910;2023-04-25T04:25:58;34.35;;;20.83;;
49962;SDS011;36180;57.678;11.910;2023-04-25T04:28:50;32.67;;;19.55;;
49962;SDS011;36180;57.678;11.910;2023-04-25T04:31:24;28.90;;;18.52;;
49962;SDS011;36180;57.678;11.910;2023-04-25T04:33:51;23.13;;;15.02;;
49962;SDS011;36180;57.678;11.910;2023-04-25T04:36:19;20.98;;;13.85;;
49962;SDS011;36180;57.678;11.910;2023-04-25T04:38:49;20.33;;;12.43;;
49962;SDS011;36180;57.678;11.910;2023-04-25T04:41:40;22.75;;;12.38;;
49962;SDS011;36180;57.678;11.910;2023-04-25T04:44:11;15.60;;;11.23;;
49962;SDS011;36180;57.678;11.910;2023-04-25T04:47:08;15.93;;;10.68;;
49962;SDS011;36180;57.678;11.910;2023-04-25T04:49:58;14.80;;;10.05;;
49962;SDS011;36180;57.678;11.910;2023-04-25T04:52:37;18.55;;;9.77;;
49962;SDS011;36180;57.678;11.910;2023-04-25T04:55:38;16.10;;;10.52;;
49962;SDS011;36180;57.678;11.910;2023-04-25T04:58:28;14.73;;;9.57;;
49962;SDS011;36180;57.678;11.910;2023-04-25T05:01:09;15.88;;;11.00;;
49962;SDS011;36180;57.678;11.910;2023-04-25T05:03:54;17.00;;;10.77;;
49962;SDS011;36180;57.678;11.910;2023-04-25T05:06:43;15.02;;;9.85;;
49962;SDS011;36180;57.678;11.910;2023-04-25T05:09:42;13.88;;;9.15;;
49962;SDS011;36180;57.678;11.910;2023-04-25T05:12:27;15.40;;;9.40;;
49962;SDS011;36180;57.678;11.910;2023-04-25T05:15:10;17.65;;;9.15;;
49962;SDS011;36180;57.678;11.910;2023-04-25T05:17:37;13.82;;;8.52;;
49962;SDS011;36180;57.678;11.910;2023-04-25T05:20:24;13.13;;;8.20;;
49962;SDS011;36180;57.678;11.910;2023-04-25T05:23:00;12.35;;;7.80;;
49962;SDS011;36180;57.678;11.910;2023-04-25T05:25:40;13.98;;;8.30;;
49962;SDS011;36180;57.678;11.910;2023-04-25T05:28:15;11.18;;;7.25;;
49962;SDS011;36180;57.678;11.910;2023-04-25T05:30:54;13.32;;;7.53;;
49962;SDS011;36180;57.678;11.910;2023-04-25T05:33:37;13.43;;;7.25;;
49962;SDS011;36180;57.678;11.910;2023-04-25T05:36:04;12.75;;;8.20;;
49962;SDS011;36180;57.678;11.910;2023-04-25T05:38:33;14.45;;;8.27;;
49962;SDS011;36180;57.678;11.910;2023-04-25T05:41:29;15.27;;;8.95;;
49962;SDS011;36180;57.678;11.910;2023-04-25T05:44:13;15.82;;;9.35;;
49962;SDS011;36180;57.678;11.910;2023-04-25T05:47:01;12.57;;;8.13;;
49962;SDS011;36180;57.678;11.910;2023-04-25T05:49:41;7.85;;;4.68;;
49962;SDS011;36180;57.678;11.910;2023-04-25T05:52:25;6.65;;;4.88;;
49962;SDS011;36180;57.678;11.910;2023-04-25T05:55:15;10.20;;;7.03;;
49962;SDS011;36180;57.678;11.910;2023-04-25T05:57:42;15.32;;;7.18;;
49962;SDS011;36180;57.678;11.910;2023-04-25T06:00:14;12.82;;;5.80;;
49962;SDS011;36180;57.678;11.910;2023-04-25T06:02:43;17.75;;;6.28;;
49962;SDS011;36180;57.678;11.910;2023-04-25T06:05:13;13.30;;;5.50;;
49962;SDS011;36180;57.678;11.910;2023-04-25T06:07:40;15.10;;;6.55;;
49962;SDS011;36180;57.678;11.910;2023-04-25T06:10:07;15.38;;;6.47;;
49962;SDS011;36180;57.678;11.910;2023-04-25T06:12:35;17.75;;;4.82;;
49962;SDS011;36180;57.678;11.910;2023-04-25T06:15:04;12.93;;;4.22;;
49962;SDS011;36180;57.678;11.910;2023-04-25T06:17:33;18.98;;;5.22;;
49962;SDS011;36180;57.678;11.910;2023-04-25T06:20:01;15.95;;;5.43;;
49962;SDS011;36180;57.678;11.910;2023-04-25T06:22:29;12.68;;;4.90;;
49962;SDS011;36180;57.678;11.910;2023-04-25T06:24:57;12.05;;;4.25;;
49962;SDS011;36180;57.678;11.910;2023-04-25T06:27:26;7.72;;;4.03;;
49962;SDS011;36180;57.678;11.910;2023-04-25T06:29:53;9.38;;;4.10;;
49962;SDS011;36180;57.678;11.910;2023-04-25T06:32:20;7.22;;;4.90;;
49962;SDS011;36180;57.678;11.910;2023-04-25T06:34:49;10.88;;;4.85;;
49962;SDS011;36180;57.678;11.910;2023-04-25T06:37:16;7.88;;;3.33;;
49962;SDS011;36180;57.678;11.910;2023-04-25T06:39:43;5.55;;;2.05;;
49962;SDS011;36180;57.678;11.910;2023-04-25T06:42:10;8.00;;;2.47;;
49962;SDS011;36180;57.678;11.910;2023-04-25T06:44:48;6.65;;;2.40;;
49962;SDS011;36180;57.678;11.910;2023-04-25T06:47:17;9.45;;;2.40;;
49962;SDS011;36180;57.678;11.910;2023-04-25T06:49:44;6.68;;;2.35;;
49962;SDS011;36180;57.678;11.910;2023-04-25T06:52:13;8.98;;;2.10;;
49962;SDS011;36180;57.678;11.910;2023-04-25T06:54:41;8.05;;;1.60;;
49962;SDS011;36180;57.678;11.910;2023-04-25T06:57:18;7.35;;;2.03;;
49962;SDS011;36180;57.678;11.910;2023-04-25T06:59:45;6.80;;;1.85;;
49962;SDS011;36180;57.678;11.910;2023-04-25T07:02:12;9.38;;;1.70;;
49962;SDS011;36180;57.678;11.910;2023-04-25T07:04:41;5.28;;;1.63;;
49962;SDS011;36180;57.678;11.910;2023-04-25T07:07:08;5.95;;;1.55;;
49962;SDS011;36180;57.678;11.910;2023-04-25T07:09:44;6.35;;;1.40;;
49962;SDS011;36180;57.678;11.910;2023-04-25T07:12:11;2.40;;;1.00;;
49962;SDS011;36180;57.678;11.910;2023-04-25T07:14:38;3.33;;;0.70;;
49962;SDS011;36180;57.678;11.910;2023-04-25T07:17:07;8.10;;;0.93;;
49962;SDS011;36180;57.678;11.910;2023-04-25T07:19:35;3.90;;;0.82;;
49962;SDS011;36180;57.678;11.910;2023-04-25T07:22:05;3.45;;;0.75;;
49962;SDS011;36180;57.678;11.910;2023-04-25T07:24:33;6.53;;;1.05;;
49962;SDS011;36180;57.678;11.910;2023-04-25T07:27:02;6.90;;;1.08;;
49962;SDS011;36180;57.678;11.910;2023-04-25T07:29:36;3.60;;;0.73;;
49962;SDS011;36180;57.678;11.910;2023-04-25T07:32:03;5.95;;;1.00;;
49962;SDS011;36180;57.678;11.910;2023-04-25T07:34:31;5.70;;;1.02;;
49962;SDS011;36180;57.678;11.910;2023-04-25T07:36:58;7.55;;;1.52;;
49962;SDS011;36180;57.678;11.910;2023-04-25T07:39:30;5.30;;;1.00;;
49962;SDS011;36180;57.678;11.910;2023-04-25T07:41:58;4.95;;;0.98;;
49962;SDS011;36180;57.678;11.910;2023-04-25T07:44:29;5.47;;;0.90;;
49962;SDS011;36180;57.678;11.910;2023-04-25T07:46:57;6.07;;;0.70;;
49962;SDS011;36180;57.678;11.910;2023-04-25T07:49:24;3.08;;;0.55;;
49962;SDS011;36180;57.678;11.910;2023-04-25T07:51:51;2.58;;;0.60;;
49962;SDS011;36180;57.678;11.910;2023-04-25T07:54:20;5.40;;;0.98;;
49962;SDS011;36180;57.678;11.910;2023-04-25T07:56:52;1.52;;;0.60;;
49962;SDS011;36180;57.678;11.910;2023-04-25T07:59:25;6.63;;;1.25;;
49962;SDS011;36180;57.678;11.910;2023-04-25T08:01:54;2.00;;;0.50;;
49962;SDS011;36180;57.678;11.910;2023-04-25T08:04:24;5.55;;;0.82;;
49962;SDS011;36180;57.678;11.910;2023-04-25T08:06:56;1.75;;;0.50;;
49962;SDS011;36180;57.678;11.910;2023-04-25T08:09:26;4.15;;;0.73;;
49962;SDS011;36180;57.678;11.910;2023-04-25T08:11:55;3.85;;;0.75;;
49962;SDS011;36180;57.678;11.910;2023-04-25T08:14:27;6.70;;;0.50;;
49962;SDS011;36180;57.678;11.910;2023-04-25T08:17:02;6.00;;;0.88;;
49962;SDS011;36180;57.678;11.910;2023-04-25T08:19:31;4.22;;;0.57;;
49962;SDS011;36180;57.678;11.910;2023-04-25T08:21:58;5.68;;;0.80;;
49962;SDS011;36180;57.678;11.910;2023-04-25T08:24:34;5.80;;;1.05;;
49962;SDS011;36180;57.678;11.910;2023-04-25T08:27:02;2.92;;;0.77;;
49962;SDS011;36180;57.678;11.910;2023-04-25T08:29:30;9.77;;;0.80;;
49962;SDS011;36180;57.678;11.910;2023-04-25T08:31:57;4.93;;;0.90;;
49962;SDS011;36180;57.678;11.910;2023-04-25T08:34:26;2.88;;;0.77;;
49962;SDS011;36180;57.678;11.910;2023-04-25T08:36:53;3.33;;;0.82;;
49962;SDS011;36180;57.678;11.910;2023-04-25T08:42:26;3.67;;;0.52;;
49962;SDS011;36180;57.678;11.910;2023-04-25T08:44:54;2.38;;;0.52;;
49962;SDS011;36180;57.678;11.910;2023-04-25T08:47:26;3.55;;;0.70;;
49962;SDS011;36180;57.678;11.910;2023-04-25T08:49:57;3.47;;;0.80;;
49962;SDS011;36180;57.678;11.910;2023-04-25T08:52:27;3.00;;;0.50;;
49962;SDS011;36180;57.678;11.910;2023-04-25T08:54:57;6.30;;;0.98;;
49962;SDS011;36180;57.678;11.910;2023-04-25T08:57:26;2.03;;;0.65;;
49962;SDS011;36180;57.678;11.910;2023-04-25T08:59:55;4.32;;;0.60;;
49962;SDS011;36180;57.678;11.910;2023-04-25T09:02:24;1.13;;;0.40;;
49962;SDS011;36180;57.678;11.910;2023-04-25T09:04:51;0.77;;;0.52;;
49962;SDS011;36180;57.678;11.910;2023-04-25T09:07:23;1.65;;;0.45;;
49962;SDS011;36180;57.678;11.910;2023-04-25T09:09:50;2.97;;;0.60;;
49962;SDS011;36180;57.678;11.910;2023-04-25T09:12:21;4.45;;;0.60;;
49962;SDS011;36180;57.678;11.910;2023-04-25T09:15:01;4.05;;;0.90;;
49962;SDS011;36180;57.678;11.910;2023-04-25T09:17:54;2.50;;;0.80;;
49962;SDS011;36180;57.678;11.910;2023-04-25T09:20:22;1.98;;;0.55;;
49962;SDS011;36180;57.678;11.910;2023-04-25T09:22:51;5.95;;;0.70;;
49962;SDS011;36180;57.678;11.910;2023-04-25T09:25:28;4.00;;;0.60;;
49962;SDS011;36180;57.678;11.910;2023-04-25T09:28:03;2.75;;;0.60;;
49962;SDS011;36180;57.678;11.910;2023-04-25T09:30:32;3.22;;;0.57;;
49962;SDS011;36180;57.678;11.910;2023-04-25T09:33:32;3.88;;;0.88;;
49962;SDS011;36180;57.678;11.910;2023-04-25T09:36:03;2.13;;;0.77;;
49962;SDS011;36180;57.678;11.910;2023-04-25T09:38:57;3.25;;;0.60;;
49962;SDS011;36180;57.678;11.910;2023-04-25T09:41:31;5.22;;;0.50;;
49962;SDS011;36180;57.678;11.910;2023-04-25T09:44:00;4.35;;;0.60;;
49962;SDS011;36180;57.678;11.910;2023-04-25T09:46:33;1.55;;;0.50;;
49962;SDS011;36180;57.678;11.910;2023-04-25T09:49:06;2.00;;;0.43;;
49962;SDS011;36180;57.678;11.910;2023-04-25T09:51:53;1.73;;;0.57;;
49962;SDS011;36180;57.678;11.910;2023-04-25T09:54:23;1.20;;;0.50;;
49962;SDS011;36180;57.678;11.910;2023-04-25T09:56:59;1.88;;;0.60;;
49962;SDS011;36180;57.678;11.910;2023-04-25T09:59:34;2.30;;;0.50;;
49962;SDS011;36180;57.678;11.910;2023-04-25T10:02:05;1.35;;;0.50;;
49962;SDS011;36180;57.678;11.910;2023-04-25T10:12:17;1.50;;;0.50;;
49962;SDS011;36180;57.678;11.910;2023-04-25T10:14:45;1.48;;;0.60;;
49962;SDS011;36180;57.678;11.910;2023-04-25T10:17:12;3.08;;;0.88;;
49962;SDS011;36180;57.678;11.910;2023-04-25T10:19:40;2.00;;;0.70;;
49962;SDS011;36180;57.678;11.910;2023-04-25T10:22:08;3.53;;;0.50;;
49962;SDS011;36180;57.678;11.910;2023-04-25T10:24:39;2.33;;;0.68;;
49962;SDS011;36180;57.678;11.910;2023-04-25T10:27:07;2.35;;;0.82;;
49962;SDS011;36180;57.678;11.910;2023-04-25T10:29:36;5.80;;;0.60;;
49962;SDS011;36180;57.678;11.910;2023-04-25T10:32:04;2.40;;;0.68;;
49962;SDS011;36180;57.678;11.910;2023-04-25T10:34:37;2.03;;;0.60;;
49962;SDS011;36180;57.678;11.910;2023-04-25T10:37:08;2.45;;;0.70;;
49962;SDS011;36180;57.678;11.910;2023-04-25T10:39:35;5.35;;;0.60;;
49962;SDS011;36180;57.678;11.910;2023-04-25T10:42:05;1.52;;;0.40;;
49962;SDS011;36180;57.678;11.910;2023-04-25T10:44:33;2.30;;;0.60;;
49962;SDS011;36180;57.678;11.910;2023-04-25T10:47:01;2.60;;;1.00;;
49962;SDS011;36180;57.678;11.910;2023-04-25T10:49:33;1.17;;;0.40;;
49962;SDS011;36180;57.678;11.910;2023-04-25T10:52:11;1.40;;;0.50;;
49962;SDS011;36180;57.678;11.910;2023-04-25T10:54:48;1.27;;;0.60;;
49962;SDS011;36180;57.678;11.910;2023-04-25T10:57:30;2.97;;;0.70;;
49962;SDS011;36180;57.678;11.910;2023-04-25T11:00:06;2.42;;;0.82;;
49962;SDS011;36180;57.678;11.910;2023-04-25T11:02:44;2.05;;;0.80;;
49962;SDS011;36180;57.678;11.910;2023-04-25T11:05:23;2.03;;;0.70;;
49962;SDS011;36180;57.678;11.910;2023-04-25T11:07:56;1.73;;;0.68;;
49962;SDS011;36180;57.678;11.910;2023-04-25T11:10:25;4.00;;;0.77;;
49962;SDS011;36180;57.678;11.910;2023-04-25T11:12:52;2.80;;;0.50;;
49962;SDS011;36180;57.678;11.910;2023-04-25T11:15:19;3.33;;;0.65;;
49962;SDS011;36180;57.678;11.910;2023-04-25T11:17:48;2.75;;;0.70;;
49962;SDS011;36180;57.678;11.910;2023-04-25T11:20:17;0.95;;;0.50;;
49962;SDS011;36180;57.678;11.910;2023-04-25T11:22:45;1.95;;;0.73;;
49962;SDS011;36180;57.678;11.910;2023-04-25T11:25:13;3.83;;;0.65;;
49962;SDS011;36180;57.678;11.910;2023-04-25T11:27:50;2.63;;;0.75;;
49962;SDS011;36180;57.678;11.910;2023-04-25T11:30:18;1.15;;;0.80;;
49962;SDS011;36180;57.678;11.910;2023-04-25T11:32:47;4.28;;;1.00;;
49962;SDS011;36180;57.678;11.910;2023-04-25T11:35:15;4.03;;;1.00;;
49962;SDS011;36180;57.678;11.910;2023-04-25T11:37:43;3.65;;;0.82;;
49962;SDS011;36180;57.678;11.910;2023-04-25T11:40:10;3.22;;;0.80;;
49962;SDS011;36180;57.678;11.910;2023-04-25T11:42:38;0.68;;;0.45;;
49962;SDS011;36180;57.678;11.910;2023-04-25T11:45:06;4.22;;;0.82;;
49962;SDS011;36180;57.678;11.910;2023-04-25T11:47:34;4.53;;;0.80;;
49962;SDS011;36180;57.678;11.910;2023-04-25T11:50:04;4.32;;;1.23;;
49962;SDS011;36180;57.678;11.910;2023-04-25T11:52:36;5.70;;;1.10;;
49962;SDS011;36180;57.678;11.910;2023-04-25T11:55:04;3.63;;;0.83;;
49962;SDS011;36180;57.678;11.910;2023-04-25T11:57:32;5.38;;;0.77;;
49962;SDS011;36180;57.678;11.910;2023-04-25T12:00:09;2.33;;;0.65;;
49962;SDS011;36180;57.678;11.910;2023-04-25T12:02:41;2.85;;;0.88;;
49962;SDS011;36180;57.678;11.910;2023-04-25T12:05:11;3.50;;;0.68;;
49962;SDS011;36180;57.678;11.910;2023-04-25T12:07:40;2.65;;;1.10;;
49962;SDS011;36180;57.678;11.910;2023-04-25T12:10:08;1.13;;;0.70;;
49962;SDS011;36180;57.678;11.910;2023-04-25T12:12:37;3.30;;;0.80;;
49962;SDS011;36180;57.678;11.910;2023-04-25T12:15:08;0.70;;;0.70;;
49962;SDS011;36180;57.678;11.910;2023-04-25T12:17:40;1.90;;;0.70;;
49962;SDS011;36180;57.678;11.910;2023-04-25T12:20:09;3.85;;;0.70;;
49962;SDS011;36180;57.678;11.910;2023-04-25T12:22:40;3.97;;;0.68;;
49962;SDS011;36180;57.678;11.910;2023-04-25T12:25:10;0.90;;;0.50;;
49962;SDS011;36180;57.678;11.910;2023-04-25T12:27:37;1.20;;;0.70;;
49962;SDS011;36180;57.678;11.910;2023-04-25T12:30:05;2.83;;;0.95;;
49962;SDS011;36180;57.678;11.910;2023-04-25T12:32:34;1.98;;;0.93;;
49962;SDS011;36180;57.678;11.910;2023-04-25T12:35:01;3.53;;;0.77;;
49962;SDS011;36180;57.678;11.910;2023-04-25T12:37:30;3.08;;;0.77;;
49962;SDS011;36180;57.678;11.910;2023-04-25T12:39:57;5.28;;;1.00;;
49962;SDS011;36180;57.678;11.910;2023-04-25T12:42:24;2.72;;;0.77;;
49962;SDS011;36180;57.678;11.910;2023-04-25T12:44:51;1.98;;;1.13;;
49962;SDS011;36180;57.678;11.910;2023-04-25T12:47:18;2.92;;;0.82;;
49962;SDS011;36180;57.678;11.910;2023-04-25T12:49:46;2.05;;;0.73;;
49962;SDS011;36180;57.678;11.910;2023-04-25T12:52:13;2.63;;;0.80;;
49962;SDS011;36180;57.678;11.910;2023-04-25T12:54:42;0.65;;;0.52;;
49962;SDS011;36180;57.678;11.910;2023-04-25T12:57:09;1.88;;;0.60;;
49962;SDS011;36180;57.678;11.910;2023-04-25T12:59:37;1.65;;;0.77;;
49962;SDS011;36180;57.678;11.910;2023-04-25T13:02:04;2.72;;;0.60;;
49962;SDS011;36180;57.678;11.910;2023-04-25T13:04:31;3.00;;;0.70;;
49962;SDS011;36180;57.678;11.910;2023-04-25T13:06:58;2.17;;;0.68;;
49962;SDS011;36180;57.678;11.910;2023-04-25T13:09:25;1.77;;;1.00;;
49962;SDS011;36180;57.678;11.910;2023-04-25T13:11:53;1.35;;;0.80;;
49962;SDS011;36180;57.678;11.910;2023-04-25T13:14:21;5.65;;;0.82;;
49962;SDS011;36180;57.678;11.910;2023-04-25T13:16:48;3.85;;;0.95;;
49962;SDS011;36180;57.678;11.910;2023-04-25T13:19:15;3.63;;;0.60;;
49962;SDS011;36180;57.678;11.910;2023-04-25T13:21:42;4.57;;;1.02;;
49962;SDS011;36180;57.678;11.910;2023-04-25T13:24:09;2.80;;;0.80;;
49962;SDS011;36180;57.678;11.910;2023-04-25T13:26:36;1.33;;;0.70;;
49962;SDS011;36180;57.678;11.910;2023-04-25T13:29:05;4.88;;;0.90;;
49962;SDS011;36180;57.678;11.910;2023-04-25T13:31:32;2.17;;;0.80;;
49962;SDS011;36180;57.678;11.910;2023-04-25T13:33:59;1.52;;;0.70;;
49962;SDS011;36180;57.678;11.910;2023-04-25T13:36:37;2.60;;;0.73;;
49962;SDS011;36180;57.678;11.910;2023-04-25T13:39:04;0.82;;;0.82;;
49962;SDS011;36180;57.678;11.910;2023-04-25T13:41:31;2.03;;;1.00;;
49962;SDS011;36180;57.678;11.910;2023-04-25T13:43:58;1.95;;;0.75;;
49962;SDS011;36180;57.678;11.910;2023-04-25T13:46:27;1.45;;;0.75;;
49962;SDS011;36180;57.678;11.910;2023-04-25T13:48:54;2.38;;;0.70;;
49962;SDS011;36180;57.678;11.910;2023-04-25T13:51:21;3.20;;;0.98;;
49962;SDS011;36180;57.678;11.910;2023-04-25T13:53:48;1.33;;;0.80;;
49962;SDS011;36180;57.678;11.910;2023-04-25T13:56:15;2.95;;;0.73;;
49962;SDS011;36180;57.678;11.910;2023-04-25T13:58:44;1.10;;;0.82;;
49962;SDS011;36180;57.678;11.910;2023-04-25T14:01:11;2.83;;;1.10;;
49962;SDS011;36180;57.678;11.910;2023-04-25T14:03:40;1.52;;;0.95;;
49962;SDS011;36180;57.678;11.910;2023-04-25T14:06:07;2.88;;;1.02;;
49962;SDS011;36180;57.678;11.910;2023-04-25T14:08:34;0.82;;;0.77;;
49962;SDS011;36180;57.678;11.910;2023-04-25T14:11:02;2.33;;;1.00;;
49962;SDS011;36180;57.678;11.910;2023-04-25T14:13:29;3.50;;;0.80;;
49962;SDS011;36180;57.678;11.910;2023-04-25T14:15:56;3.97;;;0.90;;
49962;SDS011;36180;57.678;11.910;2023-04-25T14:18:23;1.67;;;0.70;;
49962;SDS011;36180;57.678;11.910;2023-04-25T14:20:52;3.20;;;0.90;;
49962;SDS011;36180;57.678;11.910;2023-04-25T14:23:19;1.77;;;0.80;;
49962;SDS011;36180;57.678;11.910;2023-04-25T14:25:46;1.65;;;0.90;;
49962;SDS011;36180;57.678;11.910;2023-04-25T14:28:13;2.85;;;0.75;;
49962;SDS011;36180;57.678;11.910;2023-04-25T14:30:40;2.67;;;0.80;;
49962;SDS011;36180;57.678;11.910;2023-04-25T14:33:07;1.00;;;0.50;;
49962;SDS011;36180;57.678;11.910;2023-04-25T14:35:34;3.67;;;0.73;;
49962;SDS011;36180;57.678;11.910;2023-04-25T14:38:03;2.90;;;0.70;;
49962;SDS011;36180;57.678;11.910;2023-04-25T14:40:30;0.77;;;0.50;;
49962;SDS011;36180;57.678;11.910;2023-04-25T14:42:57;1.25;;;0.80;;
49962;SDS011;36180;57.678;11.910;2023-04-25T14:45:24;0.70;;;0.45;;
49962;SDS011;36180;57.678;11.910;2023-04-25T14:47:52;0.88;;;0.70;;
49962;SDS011;36180;57.678;11.910;2023-04-25T14:50:19;1.25;;;0.40;;
49962;SDS011;36180;57.678;11.910;2023-04-25T14:52:46;1.60;;;0.47;;
49962;SDS011;36180;57.678;11.910;2023-04-25T14:55:14;2.25;;;1.10;;
49962;SDS011;36180;57.678;11.910;2023-04-25T14:57:41;1.52;;;0.60;;